sensor_id;sensor_type;location;lat;lon;timestamp;P1;durP1;ratioP1;P2;durP2;ratioP2
42200;SDS011;27869;51.442;7.540;2023-11-21T00:00:01;12.88;;;4.00;;
42200;SDS011;27869;51.442;7.540;2023-11-21T00:02:29;17.90;;;5.00;;
42200;SDS011;27869;51.442;7.540;2023-11-21T00:04:56;13.77;;;4.32;;
42200;SDS011;27869;51.442;7.540;2023-11-21T00:07:25;14.20;;;4.57;;
42200;SDS011;27869;51.442;7.540;2023-11-21T00:09:51;13.52;;;4.45;;
42200;SDS011;27869;51.442;7.540;2023-11-21T00:12:20;14.07;;;4.40;;
42200;SDS011;27869;51.442;7.540;2023-11-21T00:14:47;14.68;;;4.40;;
42200;SDS011;27869;51.442;7.540;2023-11-21T00:17:14;16.38;;;4.07;;
42200;SDS011;27869;51.442;7.540;2023-11-21T00:19:41;16.50;;;4.35;;
42200;SDS011;27869;51.442;7.540;2023-11-21T00:22:08;17.00;;;4.18;;
42200;SDS011;27869;51.442;7.540;2023-11-21T00:24:39;14.13;;;4.00;;
42200;SDS011;27869;51.442;7.540;2023-11-21T00:27:06;14.07;;;3.95;;
42200;SDS011;27869;51.442;7.540;2023-11-21T00:29:33;14.20;;;4.18;;
42200;SDS011;27869;51.442;7.540;2023-11-21T00:31:59;13.13;;;3.72;;
42200;SDS011;27869;51.442;7.540;2023-11-21T00:34:27;11.25;;;3.55;;
42200;SDS011;27869;51.442;7.540;2023-11-21T00:36:53;13.20;;;3.70;;
42200;SDS011;27869;51.442;7.540;2023-11-21T00:39:20;12.55;;;3.97;;
42200;SDS011;27869;51.442;7.540;2023-11-21T00:41:48;14.23;;;4.30;;
42200;SDS011;27869;51.442;7.540;2023-11-21T00:44:15;12.30;;;3.78;;
42200;SDS011;27869;51.442;7.540;2023-11-21T00:46:42;14.25;;;3.85;;
42200;SDS011;27869;51.442;7.540;2023-11-21T00:49:09;15.07;;;3.70;;
42200;SDS011;27869;51.442;7.540;2023-11-21T00:51:36;13.73;;;3.38;;
42200;SDS011;27869;51.442;7.540;2023-11-21T00:54:03;13.35;;;3.92;;
42200;SDS011;27869;51.442;7.540;2023-11-21T00:56:31;13.80;;;3.30;;
42200;SDS011;27869;51.442;7.540;2023-11-21T00:59:00;13.45;;;3.70;;
42200;SDS011;27869;51.442;7.540;2023-11-21T01:01:27;12.25;;;3.92;;
42200;SDS011;27869;51.442;7.540;2023-11-21T01:03:54;15.73;;;4.10;;
42200;SDS011;27869;51.442;7.540;2023-11-21T01:06:21;15.55;;;4.07;;
42200;SDS011;27869;51.442;7.540;2023-11-21T01:08:48;17.77;;;3.70;;
42200;SDS011;27869;51.442;7.540;2023-11-21T01:11:15;13.70;;;4.10;;
42200;SDS011;27869;51.442;7.540;2023-11-21T01:13:42;14.90;;;4.30;;
42200;SDS011;27869;51.442;7.540;2023-11-21T01:16:11;14.07;;;4.30;;
42200;SDS011;27869;51.442;7.540;2023-11-21T01:18:38;12.45;;;4.05;;
42200;SDS011;27869;51.442;7.540;2023-11-21T01:21:05;13.43;;;4.22;;
42200;SDS011;27869;51.442;7.540;2023-11-21T01:23:32;12.77;;;3.97;;
42200;SDS011;27869;51.442;7.540;2023-11-21T01:26:00;12.57;;;4.32;;
42200;SDS011;27869;51.442;7.540;2023-11-21T01:28:28;12.55;;;3.58;;
42200;SDS011;27869;51.442;7.540;2023-11-21T01:30:55;12.82;;;3.90;;
42200;SDS011;27869;51.442;7.540;2023-11-21T01:33:24;14.68;;;4.03;;
42200;SDS011;27869;51.442;7.540;2023-11-21T01:35:51;13.90;;;4.10;;
42200;SDS011;27869;51.442;7.540;2023-11-21T01:38:19;10.60;;;3.70;;
42200;SDS011;27869;51.442;7.540;2023-11-21T01:40:47;11.65;;;3.83;;
42200;SDS011;27869;51.442;7.540;2023-11-21T01:43:14;13.95;;;3.75;;
42200;SDS011;27869;51.442;7.540;2023-11-21T01:45:41;11.70;;;3.70;;
42200;SDS011;27869;51.442;7.540;2023-11-21T01:48:10;12.90;;;3.70;;
42200;SDS011;27869;51.442;7.540;2023-11-21T01:50:39;14.20;;;3.63;;
42200;SDS011;27869;51.442;7.540;2023-11-21T01:53:06;11.90;;;3.22;;
42200;SDS011;27869;51.442;7.540;2023-11-21T01:55:32;18.95;;;3.83;;
42200;SDS011;27869;51.442;7.540;2023-11-21T01:58:00;14.23;;;4.10;;
42200;SDS011;27869;51.442;7.540;2023-11-21T02:00:27;13.48;;;3.55;;
42200;SDS011;27869;51.442;7.540;2023-11-21T02:02:54;12.43;;;3.47;;
42200;SDS011;27869;51.442;7.540;2023-11-21T02:05:21;13.27;;;3.83;;
42200;SDS011;27869;51.442;7.540;2023-11-21T02:07:50;12.10;;;3.50;;
42200;SDS011;27869;51.442;7.540;2023-11-21T02:10:17;13.00;;;3.50;;
42200;SDS011;27869;51.442;7.540;2023-11-21T02:12:47;13.80;;;3.58;;
42200;SDS011;27869;51.442;7.540;2023-11-21T02:15:15;11.45;;;3.53;;
42200;SDS011;27869;51.442;7.540;2023-11-21T02:17:45;13.05;;;4.07;;
42200;SDS011;27869;51.442;7.540;2023-11-21T02:20:12;13.93;;;3.80;;
42200;SDS011;27869;51.442;7.540;2023-11-21T02:22:40;17.52;;;4.28;;
42200;SDS011;27869;51.442;7.540;2023-11-21T02:25:09;16.13;;;3.80;;
42200;SDS011;27869;51.442;7.540;2023-11-21T02:27:36;15.15;;;3.92;;
42200;SDS011;27869;51.442;7.540;2023-11-21T02:30:04;15.57;;;4.03;;
42200;SDS011;27869;51.442;7.540;2023-11-21T02:32:33;16.25;;;4.03;;
42200;SDS011;27869;51.442;7.540;2023-11-21T02:34:59;13.75;;;4.20;;
42200;SDS011;27869;51.442;7.540;2023-11-21T02:37:27;14.13;;;3.80;;
42200;SDS011;27869;51.442;7.540;2023-11-21T02:39:54;21.88;;;4.32;;
42200;SDS011;27869;51.442;7.540;2023-11-21T02:42:22;13.63;;;4.38;;
42200;SDS011;27869;51.442;7.540;2023-11-21T02:44:49;14.43;;;4.07;;
42200;SDS011;27869;51.442;7.540;2023-11-21T02:47:16;12.50;;;3.97;;
42200;SDS011;27869;51.442;7.540;2023-11-21T02:49:43;14.57;;;4.00;;
42200;SDS011;27869;51.442;7.540;2023-11-21T02:52:09;15.02;;;4.43;;
42200;SDS011;27869;51.442;7.540;2023-11-21T02:54:36;14.60;;;4.15;;
42200;SDS011;27869;51.442;7.540;2023-11-21T02:57:03;12.85;;;4.05;;
42200;SDS011;27869;51.442;7.540;2023-11-21T02:59:32;12.75;;;3.90;;
42200;SDS011;27869;51.442;7.540;2023-11-21T03:01:59;13.85;;;4.50;;
42200;SDS011;27869;51.442;7.540;2023-11-21T03:04:25;13.35;;;4.13;;
42200;SDS011;27869;51.442;7.540;2023-11-21T03:06:52;12.30;;;4.22;;
42200;SDS011;27869;51.442;7.540;2023-11-21T03:09:19;15.48;;;4.88;;
42200;SDS011;27869;51.442;7.540;2023-11-21T03:11:46;15.75;;;4.72;;
42200;SDS011;27869;51.442;7.540;2023-11-21T03:14:12;15.13;;;5.03;;
42200;SDS011;27869;51.442;7.540;2023-11-21T03:16:41;16.40;;;4.68;;
42200;SDS011;27869;51.442;7.540;2023-11-21T03:19:10;16.98;;;5.10;;
42200;SDS011;27869;51.442;7.540;2023-11-21T03:21:37;15.75;;;4.72;;
42200;SDS011;27869;51.442;7.540;2023-11-21T03:24:04;13.80;;;4.75;;
42200;SDS011;27869;51.442;7.540;2023-11-21T03:26:32;19.40;;;4.90;;
42200;SDS011;27869;51.442;7.540;2023-11-21T03:28:59;16.80;;;4.80;;
42200;SDS011;27869;51.442;7.540;2023-11-21T03:31:26;13.75;;;4.60;;
42200;SDS011;27869;51.442;7.540;2023-11-21T03:33:54;20.15;;;5.03;;
42200;SDS011;27869;51.442;7.540;2023-11-21T03:36:20;14.15;;;4.80;;
42200;SDS011;27869;51.442;7.540;2023-11-21T03:38:47;14.18;;;4.90;;
42200;SDS011;27869;51.442;7.540;2023-11-21T03:41:14;13.30;;;4.20;;
42200;SDS011;27869;51.442;7.540;2023-11-21T03:43:41;13.15;;;4.38;;
42200;SDS011;27869;51.442;7.540;2023-11-21T03:46:08;15.70;;;4.65;;
42200;SDS011;27869;51.442;7.540;2023-11-21T03:48:35;14.02;;;4.45;;
42200;SDS011;27869;51.442;7.540;2023-11-21T03:51:03;13.90;;;4.28;;
42200;SDS011;27869;51.442;7.540;2023-11-21T03:53:30;15.32;;;4.13;;
42200;SDS011;27869;51.442;7.540;2023-11-21T03:55:57;12.95;;;4.25;;
42200;SDS011;27869;51.442;7.540;2023-11-21T03:58:24;14.43;;;4.55;;
42200;SDS011;27869;51.442;7.540;2023-11-21T04:00:51;14.23;;;4.18;;
42200;SDS011;27869;51.442;7.540;2023-11-21T04:03:18;15.77;;;5.03;;
42200;SDS011;27869;51.442;7.540;2023-11-21T04:05:45;14.38;;;4.18;;
42200;SDS011;27869;51.442;7.540;2023-11-21T04:08:13;15.25;;;4.82;;
42200;SDS011;27869;51.442;7.540;2023-11-21T04:10:40;14.85;;;4.95;;
42200;SDS011;27869;51.442;7.540;2023-11-21T04:13:07;16.13;;;4.95;;
42200;SDS011;27869;51.442;7.540;2023-11-21T04:15:34;13.73;;;4.90;;
42200;SDS011;27869;51.442;7.540;2023-11-21T04:18:00;14.73;;;4.53;;
42200;SDS011;27869;51.442;7.540;2023-11-21T04:20:28;14.60;;;4.75;;
42200;SDS011;27869;51.442;7.540;2023-11-21T04:22:54;15.63;;;5.20;;
42200;SDS011;27869;51.442;7.540;2023-11-21T04:25:23;13.75;;;4.72;;
42200;SDS011;27869;51.442;7.540;2023-11-21T04:27:50;13.65;;;4.20;;
42200;SDS011;27869;51.442;7.540;2023-11-21T04:30:17;14.20;;;4.45;;
42200;SDS011;27869;51.442;7.540;2023-11-21T04:32:44;14.50;;;5.00;;
42200;SDS011;27869;51.442;7.540;2023-11-21T04:35:10;14.25;;;4.82;;
42200;SDS011;27869;51.442;7.540;2023-11-21T04:37:37;13.65;;;4.40;;
42200;SDS011;27869;51.442;7.540;2023-11-21T04:40:05;13.30;;;4.38;;
42200;SDS011;27869;51.442;7.540;2023-11-21T04:42:35;14.77;;;4.90;;
42200;SDS011;27869;51.442;7.540;2023-11-21T04:45:02;11.98;;;4.38;;
42200;SDS011;27869;51.442;7.540;2023-11-21T04:47:34;14.77;;;4.93;;
42200;SDS011;27869;51.442;7.540;2023-11-21T04:50:00;13.80;;;4.65;;
42200;SDS011;27869;51.442;7.540;2023-11-21T04:52:28;12.80;;;4.63;;
42200;SDS011;27869;51.442;7.540;2023-11-21T04:54:55;15.52;;;4.72;;
42200;SDS011;27869;51.442;7.540;2023-11-21T04:57:23;13.50;;;4.60;;
42200;SDS011;27869;51.442;7.540;2023-11-21T04:59:52;12.65;;;4.88;;
42200;SDS011;27869;51.442;7.540;2023-11-21T05:02:18;14.50;;;4.45;;
42200;SDS011;27869;51.442;7.540;2023-11-21T05:04:46;13.68;;;5.13;;
42200;SDS011;27869;51.442;7.540;2023-11-21T05:07:13;16.25;;;5.28;;
42200;SDS011;27869;51.442;7.540;2023-11-21T05:09:41;15.63;;;5.63;;
42200;SDS011;27869;51.442;7.540;2023-11-21T05:12:09;16.30;;;6.13;;
42200;SDS011;27869;51.442;7.540;2023-11-21T05:14:36;18.10;;;6.22;;
42200;SDS011;27869;51.442;7.540;2023-11-21T05:17:04;14.20;;;5.25;;
42200;SDS011;27869;51.442;7.540;2023-11-21T05:19:33;15.85;;;5.13;;
42200;SDS011;27869;51.442;7.540;2023-11-21T05:22:01;14.60;;;5.30;;
42200;SDS011;27869;51.442;7.540;2023-11-21T05:24:28;17.77;;;5.82;;
42200;SDS011;27869;51.442;7.540;2023-11-21T05:26:57;13.68;;;5.05;;
42200;SDS011;27869;51.442;7.540;2023-11-21T05:29:24;13.23;;;5.07;;
42200;SDS011;27869;51.442;7.540;2023-11-21T05:31:51;15.13;;;5.32;;
42200;SDS011;27869;51.442;7.540;2023-11-21T05:34:19;13.65;;;4.93;;
42200;SDS011;27869;51.442;7.540;2023-11-21T05:36:48;15.35;;;5.50;;
42200;SDS011;27869;51.442;7.540;2023-11-21T05:39:15;14.23;;;5.22;;
42200;SDS011;27869;51.442;7.540;2023-11-21T05:41:43;14.45;;;5.25;;
42200;SDS011;27869;51.442;7.540;2023-11-21T05:44:10;14.40;;;5.25;;
42200;SDS011;27869;51.442;7.540;2023-11-21T05:46:39;14.20;;;5.00;;
42200;SDS011;27869;51.442;7.540;2023-11-21T05:49:08;12.93;;;4.85;;
42200;SDS011;27869;51.442;7.540;2023-11-21T05:51:36;14.93;;;5.18;;
42200;SDS011;27869;51.442;7.540;2023-11-21T05:54:03;13.98;;;5.47;;
42200;SDS011;27869;51.442;7.540;2023-11-21T05:56:30;13.85;;;4.80;;
42200;SDS011;27869;51.442;7.540;2023-11-21T05:58:57;14.30;;;5.57;;
42200;SDS011;27869;51.442;7.540;2023-11-21T06:01:24;14.00;;;5.10;;
42200;SDS011;27869;51.442;7.540;2023-11-21T06:03:53;15.98;;;5.00;;
42200;SDS011;27869;51.442;7.540;2023-11-21T06:06:19;14.23;;;5.32;;
42200;SDS011;27869;51.442;7.540;2023-11-21T06:08:48;15.95;;;5.03;;
42200;SDS011;27869;51.442;7.540;2023-11-21T06:11:15;14.48;;;5.50;;
42200;SDS011;27869;51.442;7.540;2023-11-21T06:13:42;17.63;;;5.20;;
42200;SDS011;27869;51.442;7.540;2023-11-21T06:16:09;20.75;;;4.90;;
42200;SDS011;27869;51.442;7.540;2023-11-21T06:18:38;15.68;;;5.28;;
42200;SDS011;27869;51.442;7.540;2023-11-21T06:21:05;15.45;;;5.07;;
42200;SDS011;27869;51.442;7.540;2023-11-21T06:23:35;15.20;;;5.35;;
42200;SDS011;27869;51.442;7.540;2023-11-21T06:26:04;14.88;;;4.72;;
42200;SDS011;27869;51.442;7.540;2023-11-21T06:28:31;16.35;;;5.15;;
42200;SDS011;27869;51.442;7.540;2023-11-21T06:30:58;16.02;;;5.55;;
42200;SDS011;27869;51.442;7.540;2023-11-21T06:33:30;22.10;;;8.65;;
42200;SDS011;27869;51.442;7.540;2023-11-21T06:35:56;18.60;;;6.95;;
42200;SDS011;27869;51.442;7.540;2023-11-21T06:38:23;15.95;;;6.00;;
42200;SDS011;27869;51.442;7.540;2023-11-21T06:40:55;17.52;;;5.53;;
42200;SDS011;27869;51.442;7.540;2023-11-21T06:43:24;14.32;;;4.75;;
42200;SDS011;27869;51.442;7.540;2023-11-21T06:45:51;15.18;;;4.82;;
42200;SDS011;27869;51.442;7.540;2023-11-21T06:48:19;12.80;;;4.53;;
42200;SDS011;27869;51.442;7.540;2023-11-21T06:50:46;15.30;;;4.38;;
42200;SDS011;27869;51.442;7.540;2023-11-21T06:53:13;13.85;;;4.53;;
42200;SDS011;27869;51.442;7.540;2023-11-21T06:55:40;15.00;;;5.18;;
42200;SDS011;27869;51.442;7.540;2023-11-21T06:58:06;16.10;;;5.13;;
42200;SDS011;27869;51.442;7.540;2023-11-21T07:00:35;14.10;;;4.82;;
42200;SDS011;27869;51.442;7.540;2023-11-21T07:03:01;14.63;;;5.07;;
42200;SDS011;27869;51.442;7.540;2023-11-21T07:05:29;15.10;;;5.25;;
42200;SDS011;27869;51.442;7.540;2023-11-21T07:07:56;15.80;;;5.78;;
42200;SDS011;27869;51.442;7.540;2023-11-21T07:10:29;15.02;;;5.40;;
42200;SDS011;27869;51.442;7.540;2023-11-21T07:12:56;17.02;;;4.93;;
42200;SDS011;27869;51.442;7.540;2023-11-21T07:15:23;13.18;;;5.07;;
42200;SDS011;27869;51.442;7.540;2023-11-21T07:17:52;15.20;;;5.47;;
42200;SDS011;27869;51.442;7.540;2023-11-21T07:20:19;14.50;;;5.13;;
42200;SDS011;27869;51.442;7.540;2023-11-21T07:22:46;13.27;;;4.32;;
42200;SDS011;27869;51.442;7.540;2023-11-21T07:25:13;13.82;;;5.63;;
42200;SDS011;27869;51.442;7.540;2023-11-21T07:27:40;14.27;;;4.72;;
42200;SDS011;27869;51.442;7.540;2023-11-21T07:30:07;14.70;;;4.85;;
42200;SDS011;27869;51.442;7.540;2023-11-21T07:32:35;15.18;;;5.22;;
42200;SDS011;27869;51.442;7.540;2023-11-21T07:35:06;14.32;;;5.25;;
42200;SDS011;27869;51.442;7.540;2023-11-21T07:37:34;14.93;;;5.18;;
42200;SDS011;27869;51.442;7.540;2023-11-21T07:40:00;13.75;;;4.88;;
42200;SDS011;27869;51.442;7.540;2023-11-21T07:42:27;14.25;;;5.10;;
42200;SDS011;27869;51.442;7.540;2023-11-21T07:44:54;14.63;;;4.95;;
42200;SDS011;27869;51.442;7.540;2023-11-21T07:47:21;16.50;;;5.75;;
42200;SDS011;27869;51.442;7.540;2023-11-21T07:49:52;16.48;;;5.75;;
42200;SDS011;27869;51.442;7.540;2023-11-21T07:52:22;16.40;;;6.15;;
42200;SDS011;27869;51.442;7.540;2023-11-21T07:54:49;15.00;;;5.75;;
42200;SDS011;27869;51.442;7.540;2023-11-21T07:57:15;18.15;;;7.13;;
42200;SDS011;27869;51.442;7.540;2023-11-21T07:59:43;16.70;;;7.45;;
42200;SDS011;27869;51.442;7.540;2023-11-21T08:02:09;17.10;;;7.18;;
42200;SDS011;27869;51.442;7.540;2023-11-21T08:04:37;17.92;;;7.60;;
42200;SDS011;27869;51.442;7.540;2023-11-21T08:07:03;18.02;;;7.55;;
42200;SDS011;27869;51.442;7.540;2023-11-21T08:09:32;22.52;;;7.28;;
42200;SDS011;27869;51.442;7.540;2023-11-21T08:11:59;19.67;;;6.95;;
42200;SDS011;27869;51.442;7.540;2023-11-21T08:14:27;17.73;;;7.18;;
42200;SDS011;27869;51.442;7.540;2023-11-21T08:16:54;19.33;;;7.25;;
42200;SDS011;27869;51.442;7.540;2023-11-21T08:19:22;20.27;;;7.10;;
42200;SDS011;27869;51.442;7.540;2023-11-21T08:21:50;18.60;;;6.72;;
42200;SDS011;27869;51.442;7.540;2023-11-21T08:26:48;18.92;;;6.93;;
42200;SDS011;27869;51.442;7.540;2023-11-21T08:29:14;19.33;;;7.35;;
42200;SDS011;27869;51.442;7.540;2023-11-21T08:31:41;17.65;;;7.22;;
42200;SDS011;27869;51.442;7.540;2023-11-21T08:34:09;18.30;;;7.13;;
42200;SDS011;27869;51.442;7.540;2023-11-21T08:36:40;17.27;;;6.97;;
42200;SDS011;27869;51.442;7.540;2023-11-21T08:39:07;18.20;;;7.03;;
42200;SDS011;27869;51.442;7.540;2023-11-21T08:41:35;16.83;;;7.07;;
42200;SDS011;27869;51.442;7.540;2023-11-21T08:44:04;19.90;;;7.13;;
42200;SDS011;27869;51.442;7.540;2023-11-21T08:46:32;19.02;;;6.85;;
42200;SDS011;27869;51.442;7.540;2023-11-21T08:49:01;17.20;;;7.15;;
42200;SDS011;27869;51.442;7.540;2023-11-21T08:51:28;15.98;;;6.40;;
42200;SDS011;27869;51.442;7.540;2023-11-21T08:53:56;17.40;;;6.60;;
42200;SDS011;27869;51.442;7.540;2023-11-21T08:56:25;19.67;;;7.18;;
42200;SDS011;27869;51.442;7.540;2023-11-21T08:58:53;20.98;;;7.20;;
42200;SDS011;27869;51.442;7.540;2023-11-21T09:01:21;16.60;;;6.80;;
42200;SDS011;27869;51.442;7.540;2023-11-21T09:03:48;17.30;;;6.53;;
42200;SDS011;27869;51.442;7.540;2023-11-21T09:06:15;20.20;;;7.45;;
42200;SDS011;27869;51.442;7.540;2023-11-21T09:08:42;20.90;;;7.25;;
42200;SDS011;27869;51.442;7.540;2023-11-21T09:11:09;23.85;;;7.63;;
42200;SDS011;27869;51.442;7.540;2023-11-21T09:13:36;20.67;;;7.60;;
42200;SDS011;27869;51.442;7.540;2023-11-21T09:16:03;19.67;;;7.80;;
42200;SDS011;27869;51.442;7.540;2023-11-21T09:18:32;22.15;;;8.10;;
42200;SDS011;27869;51.442;7.540;2023-11-21T09:20:59;20.35;;;7.75;;
42200;SDS011;27869;51.442;7.540;2023-11-21T09:23:26;22.42;;;9.18;;
42200;SDS011;27869;51.442;7.540;2023-11-21T09:25:53;24.98;;;8.43;;
42200;SDS011;27869;51.442;7.540;2023-11-21T09:28:22;23.05;;;9.38;;
42200;SDS011;27869;51.442;7.540;2023-11-21T09:30:49;24.33;;;8.50;;
42200;SDS011;27869;51.442;7.540;2023-11-21T09:33:16;21.80;;;8.52;;
42200;SDS011;27869;51.442;7.540;2023-11-21T09:35:44;25.85;;;9.60;;
42200;SDS011;27869;51.442;7.540;2023-11-21T09:38:11;24.88;;;10.27;;
42200;SDS011;27869;51.442;7.540;2023-11-21T09:40:38;24.25;;;9.65;;
42200;SDS011;27869;51.442;7.540;2023-11-21T09:43:05;25.38;;;9.77;;
42200;SDS011;27869;51.442;7.540;2023-11-21T09:45:41;26.30;;;9.57;;
42200;SDS011;27869;51.442;7.540;2023-11-21T09:48:12;30.08;;;10.57;;
42200;SDS011;27869;51.442;7.540;2023-11-21T09:50:39;27.02;;;10.23;;
42200;SDS011;27869;51.442;7.540;2023-11-21T09:58:10;34.20;;;11.32;;
42200;SDS011;27869;51.442;7.540;2023-11-21T10:00:40;29.90;;;10.63;;
42200;SDS011;27869;51.442;7.540;2023-11-21T10:03:07;31.92;;;11.38;;
42200;SDS011;27869;51.442;7.540;2023-11-21T10:05:35;31.17;;;11.43;;
42200;SDS011;27869;51.442;7.540;2023-11-21T10:08:02;27.50;;;10.75;;
42200;SDS011;27869;51.442;7.540;2023-11-21T10:10:33;26.35;;;11.02;;
42200;SDS011;27869;51.442;7.540;2023-11-21T10:13:02;29.58;;;10.30;;
42200;SDS011;27869;51.442;7.540;2023-11-21T10:15:31;25.67;;;9.73;;
42200;SDS011;27869;51.442;7.540;2023-11-21T10:18:01;27.80;;;9.73;;
42200;SDS011;27869;51.442;7.540;2023-11-21T10:20:31;26.08;;;9.00;;
42200;SDS011;27869;51.442;7.540;2023-11-21T10:22:59;25.17;;;9.82;;
42200;SDS011;27869;51.442;7.540;2023-11-21T10:25:28;26.45;;;9.57;;
42200;SDS011;27869;51.442;7.540;2023-11-21T10:27:56;26.35;;;9.88;;
42200;SDS011;27869;51.442;7.540;2023-11-21T10:30:27;27.85;;;9.70;;
42200;SDS011;27869;51.442;7.540;2023-11-21T10:32:58;25.63;;;8.77;;
42200;SDS011;27869;51.442;7.540;2023-11-21T10:35:38;24.48;;;9.10;;
42200;SDS011;27869;51.442;7.540;2023-11-21T10:38:06;22.40;;;9.20;;
42200;SDS011;27869;51.442;7.540;2023-11-21T10:40:37;27.42;;;9.77;;
42200;SDS011;27869;51.442;7.540;2023-11-21T10:43:08;28.67;;;10.45;;
42200;SDS011;27869;51.442;7.540;2023-11-21T10:45:36;25.98;;;10.23;;
42200;SDS011;27869;51.442;7.540;2023-11-21T10:48:05;27.42;;;10.00;;
42200;SDS011;27869;51.442;7.540;2023-11-21T10:50:33;28.02;;;10.60;;
42200;SDS011;27869;51.442;7.540;2023-11-21T10:53:01;25.58;;;9.82;;
42200;SDS011;27869;51.442;7.540;2023-11-21T10:55:29;27.13;;;9.50;;
42200;SDS011;27869;51.442;7.540;2023-11-21T10:57:57;25.63;;;10.20;;
42200;SDS011;27869;51.442;7.540;2023-11-21T11:00:28;27.33;;;10.00;;
42200;SDS011;27869;51.442;7.540;2023-11-21T11:02:56;26.92;;;9.55;;
42200;SDS011;27869;51.442;7.540;2023-11-21T11:05:24;23.00;;;9.45;;
42200;SDS011;27869;51.442;7.540;2023-11-21T11:07:56;25.55;;;9.15;;
42200;SDS011;27869;51.442;7.540;2023-11-21T11:10:26;22.55;;;8.60;;
42200;SDS011;27869;51.442;7.540;2023-11-21T11:12:54;23.70;;;8.38;;
42200;SDS011;27869;51.442;7.540;2023-11-21T11:15:22;24.75;;;8.73;;
42200;SDS011;27869;51.442;7.540;2023-11-21T11:17:51;24.33;;;9.23;;
42200;SDS011;27869;51.442;7.540;2023-11-21T11:20:22;26.95;;;8.77;;
42200;SDS011;27869;51.442;7.540;2023-11-21T13:22:25;24.33;;;11.65;;
42200;SDS011;27869;51.442;7.540;2023-11-21T13:24:52;21.35;;;10.43;;
42200;SDS011;27869;51.442;7.540;2023-11-21T13:27:18;20.17;;;10.55;;
42200;SDS011;27869;51.442;7.540;2023-11-21T13:29:46;19.17;;;9.07;;
42200;SDS011;27869;51.442;7.540;2023-11-21T13:32:13;17.25;;;7.03;;
42200;SDS011;27869;51.442;7.540;2023-11-21T13:34:41;18.23;;;8.30;;
42200;SDS011;27869;51.442;7.540;2023-11-21T13:37:10;19.85;;;8.25;;
42200;SDS011;27869;51.442;7.540;2023-11-21T13:39:38;16.95;;;7.82;;
42200;SDS011;27869;51.442;7.540;2023-11-21T13:42:09;17.58;;;7.47;;
42200;SDS011;27869;51.442;7.540;2023-11-21T13:44:36;14.43;;;5.95;;
42200;SDS011;27869;51.442;7.540;2023-11-21T13:47:09;14.50;;;5.53;;
42200;SDS011;27869;51.442;7.540;2023-11-21T13:49:35;15.40;;;6.13;;
42200;SDS011;27869;51.442;7.540;2023-11-21T13:52:05;15.48;;;6.40;;
42200;SDS011;27869;51.442;7.540;2023-11-21T13:54:32;17.95;;;7.43;;
42200;SDS011;27869;51.442;7.540;2023-11-21T13:57:01;16.15;;;6.35;;
42200;SDS011;27869;51.442;7.540;2023-11-21T13:59:28;15.35;;;6.88;;
42200;SDS011;27869;51.442;7.540;2023-11-21T14:01:57;15.05;;;6.57;;
42200;SDS011;27869;51.442;7.540;2023-11-21T14:04:25;16.17;;;6.38;;
42200;SDS011;27869;51.442;7.540;2023-11-21T14:07:15;16.67;;;6.22;;
42200;SDS011;27869;51.442;7.540;2023-11-21T14:09:51;13.90;;;5.88;;
42200;SDS011;27869;51.442;7.540;2023-11-21T14:12:19;14.05;;;5.55;;
42200;SDS011;27869;51.442;7.540;2023-11-21T14:14:46;13.70;;;5.75;;
42200;SDS011;27869;51.442;7.540;2023-11-21T14:17:14;13.88;;;5.35;;
42200;SDS011;27869;51.442;7.540;2023-11-21T14:19:40;13.63;;;5.20;;
42200;SDS011;27869;51.442;7.540;2023-11-21T14:22:08;13.13;;;4.90;;
42200;SDS011;27869;51.442;7.540;2023-11-21T14:24:35;14.48;;;5.15;;
42200;SDS011;27869;51.442;7.540;2023-11-21T14:27:06;12.85;;;5.10;;
42200;SDS011;27869;51.442;7.540;2023-11-21T14:29:35;12.55;;;4.97;;
42200;SDS011;27869;51.442;7.540;2023-11-21T14:32:04;13.73;;;4.97;;
42200;SDS011;27869;51.442;7.540;2023-11-21T14:34:31;12.75;;;4.20;;
42200;SDS011;27869;51.442;7.540;2023-11-21T14:36:58;10.32;;;3.63;;
42200;SDS011;27869;51.442;7.540;2023-11-21T14:39:28;11.32;;;3.60;;
42200;SDS011;27869;51.442;7.540;2023-11-21T14:41:55;11.52;;;3.60;;
42200;SDS011;27869;51.442;7.540;2023-11-21T14:44:24;9.80;;;3.17;;
42200;SDS011;27869;51.442;7.540;2023-11-21T14:46:55;9.65;;;2.83;;
42200;SDS011;27869;51.442;7.540;2023-11-21T14:51:53;9.25;;;2.70;;
42200;SDS011;27869;51.442;7.540;2023-11-21T14:54:27;9.38;;;2.58;;
42200;SDS011;27869;51.442;7.540;2023-11-21T14:57:06;8.32;;;2.45;;
42200;SDS011;27869;51.442;7.540;2023-11-21T14:59:36;7.57;;;2.30;;
42200;SDS011;27869;51.442;7.540;2023-11-21T15:02:05;8.38;;;2.38;;
42200;SDS011;27869;51.442;7.540;2023-11-21T15:04:41;7.53;;;2.30;;
42200;SDS011;27869;51.442;7.540;2023-11-21T15:07:08;8.15;;;2.60;;
42200;SDS011;27869;51.442;7.540;2023-11-21T15:09:36;6.45;;;2.40;;
42200;SDS011;27869;51.442;7.540;2023-11-21T15:12:06;8.02;;;2.42;;
42200;SDS011;27869;51.442;7.540;2023-11-21T15:14:43;7.10;;;2.50;;
42200;SDS011;27869;51.442;7.540;2023-11-21T15:17:14;8.52;;;2.90;;
42200;SDS011;27869;51.442;7.540;2023-11-21T15:19:47;8.52;;;2.90;;
42200;SDS011;27869;51.442;7.540;2023-11-21T15:22:15;8.57;;;2.80;;
42200;SDS011;27869;51.442;7.540;2023-11-21T15:24:42;10.00;;;3.28;;
42200;SDS011;27869;51.442;7.540;2023-11-21T15:27:12;11.55;;;3.95;;
42200;SDS011;27869;51.442;7.540;2023-11-21T15:29:40;10.10;;;3.80;;
42200;SDS011;27869;51.442;7.540;2023-11-21T15:32:07;10.50;;;3.95;;
42200;SDS011;27869;51.442;7.540;2023-11-21T15:34:36;11.40;;;4.25;;
42200;SDS011;27869;51.442;7.540;2023-11-21T15:37:04;10.73;;;4.18;;
42200;SDS011;27869;51.442;7.540;2023-11-21T15:39:36;12.10;;;5.03;;
42200;SDS011;27869;51.442;7.540;2023-11-21T15:42:04;12.50;;;5.15;;
42200;SDS011;27869;51.442;7.540;2023-11-21T15:44:32;12.75;;;5.05;;
42200;SDS011;27869;51.442;7.540;2023-11-21T15:46:59;12.45;;;5.43;;
42200;SDS011;27869;51.442;7.540;2023-11-21T15:52:00;14.15;;;5.50;;
42200;SDS011;27869;51.442;7.540;2023-11-21T15:54:27;13.90;;;5.82;;
42200;SDS011;27869;51.442;7.540;2023-11-21T15:56:55;13.00;;;5.75;;
42200;SDS011;27869;51.442;7.540;2023-11-21T15:59:24;15.23;;;6.38;;
42200;SDS011;27869;51.442;7.540;2023-11-21T16:01:54;13.60;;;6.15;;
42200;SDS011;27869;51.442;7.540;2023-11-21T16:04:22;15.80;;;6.50;;
42200;SDS011;27869;51.442;7.540;2023-11-21T16:06:51;15.45;;;6.65;;
42200;SDS011;27869;51.442;7.540;2023-11-21T16:09:20;14.77;;;6.35;;
42200;SDS011;27869;51.442;7.540;2023-11-21T16:11:48;14.02;;;6.07;;
42200;SDS011;27869;51.442;7.540;2023-11-21T16:14:18;13.18;;;5.80;;
42200;SDS011;27869;51.442;7.540;2023-11-21T16:16:50;13.88;;;5.53;;
42200;SDS011;27869;51.442;7.540;2023-11-21T16:19:17;12.07;;;4.80;;
42200;SDS011;27869;51.442;7.540;2023-11-21T16:21:44;10.93;;;4.38;;
42200;SDS011;27869;51.442;7.540;2023-11-21T16:24:11;12.80;;;5.05;;
42200;SDS011;27869;51.442;7.540;2023-11-21T16:26:42;12.60;;;5.32;;
42200;SDS011;27869;51.442;7.540;2023-11-21T16:29:10;13.65;;;5.25;;
42200;SDS011;27869;51.442;7.540;2023-11-21T16:31:37;13.68;;;5.25;;
42200;SDS011;27869;51.442;7.540;2023-11-21T16:34:10;12.48;;;5.15;;
42200;SDS011;27869;51.442;7.540;2023-11-21T16:36:38;12.48;;;4.72;;
42200;SDS011;27869;51.442;7.540;2023-11-21T16:39:06;12.10;;;4.47;;
42200;SDS011;27869;51.442;7.540;2023-11-21T16:41:35;11.95;;;3.90;;
42200;SDS011;27869;51.442;7.540;2023-11-21T16:44:04;11.35;;;4.07;;
42200;SDS011;27869;51.442;7.540;2023-11-21T16:46:31;12.77;;;3.97;;
42200;SDS011;27869;51.442;7.540;2023-11-21T16:48:58;11.40;;;4.20;;